createdAt,value
2024-02-29T00:00:49.625Z,6.69
2024-02-29T00:03:17.622Z,6.69
2024-02-29T00:05:45.262Z,6.69
2024-02-29T00:08:13.037Z,6.68
2024-02-29T00:10:40.687Z,6.69
2024-02-29T00:13:08.287Z,6.71
2024-02-29T00:18:04.293Z,6.78
2024-02-29T00:20:32.056Z,6.82
2024-02-29T00:23:03.096Z,6.84
2024-02-29T00:25:30.960Z,6.86
2024-02-29T00:27:58.750Z,6.85
2024-02-29T00:30:26.523Z,6.81
2024-02-29T00:32:56.733Z,6.79
2024-02-29T00:35:25.494Z,6.78
2024-02-29T00:37:53.348Z,6.78
2024-02-29T00:40:20.964Z,6.77
2024-02-29T00:42:48.794Z,6.79
2024-02-29T00:45:16.553Z,6.80
2024-02-29T00:47:44.455Z,6.79
2024-02-29T00:50:12.175Z,6.76
2024-02-29T00:52:39.954Z,6.74
2024-02-29T00:55:07.621Z,6.72
2024-02-29T00:57:35.599Z,6.70
2024-02-29T01:00:03.235Z,6.71
2024-02-29T01:02:31.301Z,6.71
2024-02-29T01:04:58.861Z,6.70
2024-02-29T01:07:26.539Z,6.70
2024-02-29T01:09:54.403Z,6.71
2024-02-29T01:12:22.165Z,6.74
2024-02-29T01:14:49.910Z,6.75
2024-02-29T01:17:17.681Z,6.75
2024-02-29T01:19:45.650Z,6.72
2024-02-29T01:22:15.828Z,6.73
2024-02-29T01:24:45.820Z,6.74
2024-02-29T01:27:13.664Z,6.75
2024-02-29T01:29:41.312Z,6.76
2024-02-29T01:32:18.350Z,6.78
2024-02-29T01:34:50.876Z,6.79
2024-02-29T01:37:18.642Z,6.80
2024-02-29T01:39:46.542Z,6.81
2024-02-29T01:42:14.584Z,6.81
2024-02-29T01:44:42.236Z,6.83
2024-02-29T01:47:10.002Z,6.83
2024-02-29T01:49:37.659Z,6.84
2024-02-29T01:52:05.369Z,6.83
2024-02-29T01:54:33.167Z,6.77
2024-02-29T01:57:00.948Z,6.71
2024-02-29T01:59:28.826Z,6.68
2024-02-29T02:01:57.014Z,6.66
2024-02-29T02:04:24.754Z,6.66
2024-02-29T02:06:52.558Z,6.68
2024-02-29T02:09:20.488Z,6.67
2024-02-29T02:11:48.249Z,6.66
2024-02-29T02:14:16.120Z,6.64
2024-02-29T02:16:43.780Z,6.60
2024-02-29T02:19:11.601Z,6.60
2024-02-29T02:21:39.339Z,6.64
2024-02-29T02:24:07.484Z,6.66
2024-02-29T02:26:35.208Z,6.64
2024-02-29T02:29:03.009Z,6.64
2024-02-29T02:31:30.683Z,6.66
2024-02-29T02:33:58.460Z,6.70
2024-02-29T02:36:26.192Z,6.74
2024-02-29T02:38:53.760Z,6.79
2024-02-29T02:41:21.508Z,6.79
2024-02-29T02:43:49.288Z,6.80
2024-02-29T02:46:17.393Z,6.80
2024-02-29T02:48:45.256Z,6.79
2024-02-29T02:51:12.981Z,6.78
2024-02-29T02:53:40.853Z,6.82
2024-02-29T02:56:08.610Z,6.83
2024-02-29T02:58:36.379Z,6.81
2024-02-29T03:01:04.365Z,6.76
2024-02-29T03:03:32.231Z,6.72
2024-02-29T03:06:00.280Z,6.65
2024-02-29T03:08:27.830Z,6.60
2024-02-29T03:10:55.733Z,6.58
2024-02-29T03:13:23.567Z,6.58
2024-02-29T03:15:51.350Z,6.61
2024-02-29T03:18:19.313Z,6.61
2024-02-29T03:20:47.174Z,6.63
2024-02-29T03:23:14.944Z,6.67
2024-02-29T03:25:42.712Z,6.70
2024-02-29T03:28:10.913Z,6.74
2024-02-29T03:30:38.886Z,6.80
2024-02-29T03:33:06.759Z,6.84
2024-02-29T03:35:34.365Z,6.88
2024-02-29T03:38:02.247Z,6.89
2024-02-29T03:40:29.814Z,6.90
2024-02-29T03:42:57.627Z,6.92
2024-02-29T03:45:25.429Z,6.95
2024-02-29T03:47:53.109Z,6.95
2024-02-29T03:50:21.155Z,6.94
2024-02-29T03:52:48.818Z,6.92
2024-02-29T03:55:16.661Z,6.93
2024-02-29T03:57:44.487Z,6.95
2024-02-29T04:00:12.477Z,6.99
2024-02-29T04:02:40.389Z,7.03
2024-02-29T04:05:08.041Z,7.07
2024-02-29T04:07:35.822Z,7.12
2024-02-29T04:10:03.747Z,7.19
2024-02-29T04:12:31.892Z,7.22
2024-02-29T04:14:59.822Z,7.24
2024-02-29T04:17:27.500Z,7.23
2024-02-29T04:19:55.149Z,7.19
2024-02-29T04:22:22.853Z,7.15
2024-02-29T04:24:50.645Z,7.11
2024-02-29T04:27:18.330Z,7.09
2024-02-29T04:29:46.101Z,7.06
2024-02-29T04:32:13.757Z,7.03
2024-02-29T04:34:42.042Z,7.01
2024-02-29T04:37:09.911Z,7.00
2024-02-29T04:39:37.883Z,7.04
2024-02-29T04:42:05.529Z,7.07
2024-02-29T04:44:33.396Z,7.11
2024-02-29T04:47:01.259Z,7.11
2024-02-29T04:49:28.973Z,7.12
2024-02-29T04:51:56.741Z,7.10
2024-02-29T04:54:25.070Z,7.08
2024-02-29T04:56:52.836Z,7.09
2024-02-29T04:59:20.482Z,7.12
2024-02-29T05:01:48.483Z,7.13
2024-02-29T05:04:16.571Z,7.17
2024-02-29T05:06:44.319Z,7.17
2024-02-29T05:09:12.062Z,7.16
2024-02-29T05:11:40.150Z,7.17
2024-02-29T05:14:08.311Z,7.20
2024-02-29T05:16:36.192Z,7.20
2024-02-29T05:19:04.037Z,7.21
2024-02-29T05:21:31.858Z,7.22
2024-02-29T05:23:59.662Z,7.23
2024-02-29T05:26:27.431Z,7.22
2024-02-29T05:28:55.302Z,7.20
2024-02-29T05:31:23.170Z,7.17
2024-02-29T05:33:51.139Z,7.16
2024-02-29T05:36:19.416Z,7.18
2024-02-29T05:38:47.275Z,7.21
2024-02-29T05:41:15.196Z,7.21
2024-02-29T05:43:42.809Z,7.19
2024-02-29T05:46:10.710Z,7.19
2024-02-29T05:48:38.663Z,7.21
2024-02-29T05:51:06.498Z,7.24
2024-02-29T05:53:34.266Z,7.30
2024-02-29T05:56:02.850Z,7.33
2024-02-29T05:58:30.616Z,7.35
2024-02-29T06:00:58.694Z,7.40
2024-02-29T06:03:26.574Z,7.43
2024-02-29T06:05:54.209Z,7.46
2024-02-29T06:08:22.077Z,7.50
2024-02-29T06:10:49.753Z,7.54
2024-02-29T06:13:17.717Z,7.56
2024-02-29T06:15:45.825Z,7.58
2024-02-29T06:18:13.979Z,7.62
2024-02-29T06:20:41.725Z,7.65
2024-02-29T06:23:09.474Z,7.68
2024-02-29T06:25:37.135Z,7.69
2024-02-29T06:28:04.842Z,7.72
2024-02-29T06:30:32.258Z,7.72
2024-02-29T06:32:59.964Z,7.73
2024-02-29T06:35:27.882Z,7.74
2024-02-29T06:37:55.559Z,7.76
2024-02-29T06:40:23.562Z,7.77
2024-02-29T06:42:51.253Z,7.76
2024-02-29T06:45:19.040Z,7.75
2024-02-29T06:47:46.882Z,7.75
2024-02-29T06:50:14.589Z,7.77
2024-02-29T06:52:42.337Z,7.80
2024-02-29T06:55:10.344Z,7.83
2024-02-29T06:57:38.283Z,7.84
2024-02-29T07:00:06.029Z,7.85
2024-02-29T07:02:34.141Z,7.87
2024-02-29T07:05:01.968Z,7.90
2024-02-29T07:07:29.629Z,7.93
2024-02-29T07:09:57.440Z,7.96
2024-02-29T07:12:25.263Z,7.97
2024-02-29T07:14:52.932Z,7.95
2024-02-29T07:17:20.687Z,7.93
2024-02-29T07:19:48.460Z,7.93
2024-02-29T07:22:16.214Z,7.97
2024-02-29T07:24:44.540Z,8.00
2024-02-29T07:27:12.363Z,8.03
2024-02-29T07:29:40.224Z,8.07
2024-02-29T07:32:07.990Z,8.11
2024-02-29T07:34:35.752Z,8.15
2024-02-29T07:37:03.597Z,8.16
2024-02-29T07:39:31.184Z,8.15
2024-02-29T07:41:58.954Z,8.17
2024-02-29T07:44:26.930Z,8.20
2024-02-29T07:46:54.785Z,8.22
2024-02-29T07:49:22.668Z,8.26
2024-02-29T07:51:50.416Z,8.31
2024-02-29T07:54:18.165Z,8.34
2024-02-29T07:56:45.834Z,8.37
2024-02-29T07:59:13.613Z,8.41
2024-02-29T08:01:41.687Z,8.45
2024-02-29T08:04:09.929Z,8.50
2024-02-29T08:06:37.781Z,8.55
2024-02-29T08:09:07.474Z,8.55
2024-02-29T08:11:36.544Z,8.55
2024-02-29T08:14:04.374Z,8.57
2024-02-29T08:16:32.041Z,8.60
2024-02-29T08:18:59.744Z,8.64
2024-02-29T08:21:27.679Z,8.69
2024-02-29T08:23:55.546Z,8.75
2024-02-29T08:26:23.814Z,8.81
2024-02-29T08:28:51.598Z,8.87
2024-02-29T08:31:19.668Z,8.89
2024-02-29T08:33:47.659Z,8.90
2024-02-29T08:36:15.490Z,8.93
2024-02-29T08:38:43.341Z,8.99
2024-02-29T08:41:11.117Z,9.04
2024-02-29T08:43:38.972Z,9.06
2024-02-29T08:46:06.693Z,9.08
2024-02-29T08:48:34.963Z,9.12
2024-02-29T08:51:02.801Z,9.18
2024-02-29T08:53:30.646Z,9.25
2024-02-29T08:55:58.419Z,9.32
2024-02-29T08:58:26.244Z,9.40
2024-02-29T09:00:54.084Z,9.52
2024-02-29T09:03:22.013Z,9.63
2024-02-29T09:05:49.900Z,9.70
2024-02-29T09:08:20.689Z,9.73
2024-02-29T09:10:49.864Z,9.78
2024-02-29T09:13:29.605Z,9.82
2024-02-29T09:16:02.659Z,9.91
2024-02-29T09:18:30.501Z,10.02
2024-02-29T09:20:58.270Z,10.14
2024-02-29T09:23:26.238Z,10.25
2024-02-29T09:25:54.107Z,10.33
2024-02-29T09:28:22.329Z,10.38
2024-02-29T09:30:50.276Z,10.44
2024-02-29T09:33:18.360Z,10.55
2024-02-29T09:35:46.294Z,10.70
2024-02-29T09:38:14.180Z,10.85
2024-02-29T09:40:49.196Z,11.05
2024-02-29T09:43:20.466Z,11.16
2024-02-29T09:45:48.323Z,11.15
2024-02-29T09:48:16.511Z,11.11
2024-02-29T09:50:44.143Z,11.10
2024-02-29T09:53:11.911Z,11.07
2024-02-29T09:55:39.463Z,10.96
2024-02-29T09:58:07.240Z,10.88
2024-02-29T10:00:34.683Z,10.82
2024-02-29T10:03:02.541Z,10.81
2024-02-29T10:05:30.202Z,10.78
2024-02-29T10:07:57.977Z,10.73
2024-02-29T10:10:25.837Z,10.70
2024-02-29T10:12:54.164Z,10.69
2024-02-29T10:15:22.083Z,10.71
2024-02-29T10:17:50.260Z,10.75
2024-02-29T10:20:18.532Z,10.81
2024-02-29T10:22:48.452Z,10.90
2024-02-29T10:25:17.999Z,10.99
2024-02-29T10:27:45.862Z,11.07
2024-02-29T10:30:13.693Z,11.15
2024-02-29T10:32:41.464Z,11.20
2024-02-29T10:35:09.318Z,11.21
2024-02-29T10:37:37.489Z,11.25
2024-02-29T10:40:08.505Z,11.33
2024-02-29T10:42:36.542Z,11.44
2024-02-29T10:45:04.468Z,11.49
2024-02-29T10:47:32.373Z,11.49
2024-02-29T10:50:00.230Z,11.49
2024-02-29T10:52:28.255Z,11.47
2024-02-29T10:54:56.160Z,11.48
2024-02-29T10:57:23.999Z,11.47
2024-02-29T10:59:51.765Z,11.46
2024-02-29T11:02:19.523Z,11.48
2024-02-29T11:04:47.353Z,11.50
2024-02-29T11:07:15.025Z,11.52
2024-02-29T11:09:42.932Z,11.55
2024-02-29T11:12:10.875Z,11.56
2024-02-29T11:14:39.000Z,11.56
2024-02-29T11:17:07.142Z,11.59
2024-02-29T11:19:42.366Z,11.59
2024-02-29T11:22:17.060Z,11.60
2024-02-29T11:24:45.323Z,11.58
2024-02-29T11:27:13.337Z,11.54
2024-02-29T11:29:41.111Z,11.55
2024-02-29T11:32:10.436Z,11.58
2024-02-29T11:34:38.363Z,11.59
2024-02-29T11:37:06.497Z,11.63
2024-02-29T11:39:34.404Z,11.66
2024-02-29T11:42:02.103Z,11.66
2024-02-29T11:44:29.849Z,11.64
2024-02-29T11:46:57.603Z,11.60
2024-02-29T11:49:25.506Z,11.62
2024-02-29T11:51:53.365Z,11.69
2024-02-29T11:54:23.307Z,11.79
2024-02-29T11:56:51.314Z,11.84
2024-02-29T11:59:18.992Z,11.86
2024-02-29T12:01:47.274Z,11.91
2024-02-29T12:04:15.340Z,11.93
2024-02-29T12:06:43.318Z,11.97
2024-02-29T12:09:11.074Z,12.06
2024-02-29T12:11:38.923Z,12.10
2024-02-29T12:14:06.699Z,12.10
2024-02-29T12:16:35.077Z,12.05
2024-02-29T12:19:02.886Z,12.10
2024-02-29T12:21:30.592Z,12.16
2024-02-29T12:23:58.364Z,12.20
2024-02-29T12:26:26.121Z,12.23
2024-02-29T12:28:53.793Z,12.24
2024-02-29T12:31:21.612Z,12.33
2024-02-29T12:33:49.382Z,12.45
2024-02-29T12:36:17.266Z,12.57
2024-02-29T12:38:45.575Z,12.64
2024-02-29T12:41:13.422Z,12.60
2024-02-29T12:43:41.299Z,12.53
2024-02-29T12:46:09.151Z,12.48
2024-02-29T12:48:37.034Z,12.49
2024-02-29T12:51:05.067Z,12.51
2024-02-29T12:53:32.863Z,12.56
2024-02-29T12:56:00.627Z,12.57
2024-02-29T12:58:28.947Z,12.52
2024-02-29T13:00:56.875Z,12.43
2024-02-29T13:03:24.526Z,12.38
2024-02-29T13:05:52.298Z,12.38
2024-02-29T13:08:20.171Z,12.44
2024-02-29T13:10:48.026Z,12.47
2024-02-29T13:13:15.834Z,12.60
2024-02-29T13:15:43.679Z,12.78
2024-02-29T13:18:11.362Z,12.89
2024-02-29T13:20:39.201Z,12.95
2024-02-29T13:23:07.053Z,12.99
2024-02-29T13:25:34.927Z,13.04
2024-02-29T13:28:02.700Z,13.07
2024-02-29T13:30:30.438Z,13.09
2024-02-29T13:32:58.360Z,13.09
2024-02-29T13:35:26.385Z,13.04
2024-02-29T13:37:54.241Z,13.01
2024-02-29T13:40:21.942Z,12.99
2024-02-29T13:42:49.908Z,12.97
2024-02-29T13:45:17.958Z,12.89
2024-02-29T13:47:45.737Z,12.82
2024-02-29T13:50:13.482Z,12.77
2024-02-29T13:52:41.343Z,12.78
2024-02-29T13:55:09.032Z,12.81
2024-02-29T13:57:36.873Z,12.88
2024-02-29T14:00:04.566Z,12.96
2024-02-29T14:02:32.305Z,13.02
2024-02-29T14:05:00.405Z,13.04
2024-02-29T14:07:28.360Z,13.05
2024-02-29T14:09:56.363Z,13.02
2024-02-29T14:12:24.082Z,12.96
2024-02-29T14:14:51.838Z,12.93
2024-02-29T14:17:19.511Z,12.91
2024-02-29T14:19:47.457Z,12.91
2024-02-29T14:22:15.466Z,12.91
2024-02-29T14:24:43.274Z,12.90
2024-02-29T14:27:11.379Z,12.87
2024-02-29T14:29:39.651Z,12.84
2024-02-29T14:32:07.406Z,12.78
2024-02-29T14:34:35.241Z,12.73
2024-02-29T14:37:03.118Z,12.69
2024-02-29T14:39:30.801Z,12.65
2024-02-29T14:41:58.455Z,12.61
2024-02-29T14:44:26.236Z,12.57
2024-02-29T14:46:54.303Z,12.54
2024-02-29T14:49:22.392Z,12.51
2024-02-29T14:51:50.364Z,12.52
2024-02-29T14:54:18.235Z,12.52
2024-02-29T14:56:46.056Z,12.52
2024-02-29T14:59:13.828Z,12.52
2024-02-29T15:01:41.583Z,12.48
2024-02-29T15:04:09.482Z,12.44
2024-02-29T15:06:37.645Z,12.41
2024-02-29T15:09:05.487Z,12.41
2024-02-29T15:11:33.318Z,12.41
2024-02-29T15:14:01.124Z,12.40
2024-02-29T15:16:29.164Z,12.35
2024-02-29T15:18:56.990Z,12.32
2024-02-29T15:21:24.943Z,12.29
2024-02-29T15:23:52.805Z,12.21
2024-02-29T15:26:20.572Z,12.13
2024-02-29T15:28:48.538Z,12.04
2024-02-29T15:31:16.411Z,11.94
2024-02-29T15:33:44.335Z,11.86
2024-02-29T15:36:12.031Z,11.78
2024-02-29T15:38:39.816Z,11.68
2024-02-29T15:41:07.671Z,11.59
2024-02-29T15:43:35.415Z,11.52
2024-02-29T15:46:03.332Z,11.44
2024-02-29T15:48:31.375Z,11.38
2024-02-29T15:50:59.347Z,11.30
2024-02-29T15:53:27.196Z,11.20
2024-02-29T15:55:55.163Z,11.10
2024-02-29T15:58:22.978Z,11.01
2024-02-29T16:00:50.613Z,10.93
2024-02-29T16:03:18.570Z,10.85
2024-02-29T16:05:46.216Z,10.77
2024-02-29T16:08:14.189Z,10.70
2024-02-29T16:10:41.743Z,10.63
2024-02-29T16:13:12.515Z,10.56
2024-02-29T16:15:40.356Z,10.48
2024-02-29T16:18:08.251Z,10.41
2024-02-29T16:20:35.904Z,10.35
2024-02-29T16:23:03.761Z,10.26
2024-02-29T16:25:31.774Z,10.19
2024-02-29T16:27:59.639Z,10.12
2024-02-29T16:30:27.440Z,10.07
2024-02-29T16:32:55.326Z,10.02
2024-02-29T16:35:23.388Z,9.99
2024-02-29T16:37:51.140Z,9.96
2024-02-29T16:40:18.991Z,9.94
2024-02-29T16:42:46.746Z,9.91
2024-02-29T16:45:14.640Z,9.89
2024-02-29T16:47:42.421Z,9.86
2024-02-29T16:50:10.166Z,9.83
2024-02-29T16:52:38.058Z,9.81
2024-02-29T16:55:06.367Z,9.79
2024-02-29T16:57:34.508Z,9.75
2024-02-29T17:00:02.235Z,9.71
2024-02-29T17:02:29.903Z,9.66
2024-02-29T17:04:57.674Z,9.61
2024-02-29T17:07:25.391Z,9.56
2024-02-29T17:09:53.209Z,9.47
2024-02-29T17:12:20.971Z,9.36
2024-02-29T17:14:48.833Z,9.24
2024-02-29T17:17:16.596Z,9.14
2024-02-29T17:19:44.662Z,9.13
2024-02-29T17:22:12.512Z,9.17
2024-02-29T17:24:40.291Z,9.17
2024-02-29T17:27:08.045Z,9.11
2024-02-29T17:29:35.857Z,8.94
2024-02-29T17:32:03.682Z,8.85
2024-02-29T17:34:31.474Z,8.80
2024-02-29T17:36:59.707Z,8.78
2024-02-29T17:39:27.390Z,8.76
2024-02-29T17:41:55.143Z,8.77
2024-02-29T17:44:22.910Z,8.78
2024-02-29T17:46:50.676Z,8.77
2024-02-29T17:49:18.564Z,8.75
2024-02-29T17:51:46.365Z,8.73
2024-02-29T17:54:14.073Z,8.66
2024-02-29T17:56:41.629Z,8.57
2024-02-29T17:59:09.490Z,8.49
2024-02-29T18:01:37.295Z,8.39
2024-02-29T18:04:05.262Z,8.30
2024-02-29T18:06:33.107Z,8.22
2024-02-29T18:09:00.859Z,8.16
2024-02-29T18:11:29.004Z,8.14
2024-02-29T18:13:56.792Z,8.13
2024-02-29T18:16:24.596Z,8.13
2024-02-29T18:18:52.592Z,8.18
2024-02-29T18:21:20.406Z,8.19
2024-02-29T18:23:48.152Z,8.17
2024-02-29T18:26:16.522Z,8.13
2024-02-29T18:28:44.507Z,8.08
2024-02-29T18:31:12.304Z,8.04
2024-02-29T18:33:40.608Z,8.00
2024-02-29T18:36:08.427Z,8.01
2024-02-29T18:38:36.274Z,8.00
2024-02-29T18:41:03.948Z,8.02
2024-02-29T18:43:31.635Z,8.05
2024-02-29T18:46:05.703Z,8.07
2024-02-29T18:48:34.706Z,8.06
2024-02-29T18:51:02.398Z,8.03
2024-02-29T18:53:30.460Z,7.97
2024-02-29T18:55:58.106Z,7.91
2024-02-29T18:58:25.825Z,7.84
2024-02-29T19:00:53.806Z,7.74
2024-02-29T19:03:21.599Z,7.63
2024-02-29T19:05:49.360Z,7.58
2024-02-29T19:08:17.019Z,7.55
2024-02-29T19:10:44.808Z,7.55
2024-02-29T19:13:13.087Z,7.55
2024-02-29T19:15:41.137Z,7.54
2024-02-29T19:18:09.176Z,7.53
2024-02-29T19:20:36.774Z,7.50
2024-02-29T19:23:04.833Z,7.49
2024-02-29T19:25:32.615Z,7.55
2024-02-29T19:28:00.528Z,7.63
2024-02-29T19:30:28.445Z,7.70
2024-02-29T19:32:56.134Z,7.76
2024-02-29T19:35:23.853Z,7.83
2024-02-29T19:37:51.619Z,7.87
2024-02-29T19:40:19.748Z,7.87
2024-02-29T19:42:47.434Z,7.88
2024-02-29T19:45:15.115Z,7.86
2024-02-29T19:47:42.824Z,7.83
2024-02-29T19:50:10.646Z,7.72
2024-02-29T19:52:38.556Z,7.56
2024-02-29T19:55:06.779Z,7.39
2024-02-29T19:57:35.266Z,7.29
2024-02-29T20:00:03.040Z,7.25
2024-02-29T20:02:30.698Z,7.29
2024-02-29T20:04:58.466Z,7.38
2024-02-29T20:07:26.207Z,7.47
2024-02-29T20:09:54.015Z,7.57
2024-02-29T20:12:21.864Z,7.64
2024-02-29T20:14:49.928Z,7.70
2024-02-29T20:17:17.791Z,7.75
2024-02-29T20:19:45.915Z,7.80
2024-02-29T20:22:13.760Z,7.84
2024-02-29T20:24:41.482Z,7.86
2024-02-29T20:27:09.155Z,7.89
2024-02-29T20:29:37.019Z,7.88
2024-02-29T20:32:04.893Z,7.87
2024-02-29T20:34:32.736Z,7.85
2024-02-29T20:37:00.565Z,7.84
2024-02-29T20:39:28.375Z,7.80
2024-02-29T20:41:56.147Z,7.78
2024-02-29T20:44:23.922Z,7.72
2024-02-29T20:46:51.791Z,7.58
2024-02-29T20:49:19.464Z,7.45
2024-02-29T20:51:47.231Z,7.32
2024-02-29T20:54:14.957Z,7.27
2024-02-29T20:56:42.739Z,7.28
2024-02-29T20:59:10.802Z,7.27
2024-02-29T21:01:38.554Z,7.20
2024-02-29T21:04:06.455Z,7.17
2024-02-29T21:06:33.996Z,7.16
2024-02-29T21:09:01.758Z,7.16
2024-02-29T21:11:29.540Z,7.12
2024-02-29T21:13:57.273Z,7.10
2024-02-29T21:16:24.917Z,7.09
2024-02-29T21:18:52.717Z,7.08
2024-02-29T21:21:20.476Z,7.05
2024-02-29T21:23:48.226Z,7.05
2024-02-29T21:26:15.889Z,7.07
2024-02-29T21:28:43.673Z,7.14
2024-02-29T21:31:11.545Z,7.22
2024-02-29T21:33:39.289Z,7.29
2024-02-29T21:36:06.949Z,7.36
2024-02-29T21:38:34.607Z,7.42
2024-02-29T21:41:02.685Z,7.46
2024-02-29T21:43:30.779Z,7.49
2024-02-29T21:45:58.534Z,7.51
2024-02-29T21:48:26.292Z,7.52
2024-02-29T21:50:54.146Z,7.53
2024-02-29T21:53:22.012Z,7.51
2024-02-29T21:55:49.687Z,7.48
2024-02-29T21:58:17.465Z,7.47
2024-02-29T22:00:45.164Z,7.47
2024-02-29T22:03:16.251Z,7.47
2024-02-29T22:05:44.011Z,7.50
2024-02-29T22:08:11.874Z,7.50
2024-02-29T22:10:39.660Z,7.50
2024-02-29T22:13:07.651Z,7.50
2024-02-29T22:15:35.285Z,7.48
2024-02-29T22:18:03.009Z,7.47
2024-02-29T22:20:30.794Z,7.47
2024-02-29T22:22:58.668Z,7.49
2024-02-29T22:25:26.569Z,7.52
2024-02-29T22:27:54.651Z,7.54
2024-02-29T22:30:22.359Z,7.54
2024-02-29T22:32:50.051Z,7.56
2024-02-29T22:35:17.806Z,7.56
2024-02-29T22:37:45.553Z,7.58
2024-02-29T22:40:13.433Z,7.60
2024-02-29T22:42:41.390Z,7.59
2024-02-29T22:45:09.245Z,7.59
2024-02-29T22:47:37.368Z,7.59
2024-02-29T22:50:05.185Z,7.58
2024-02-29T22:52:33.043Z,7.59
2024-02-29T22:55:00.882Z,7.61
2024-02-29T22:57:28.894Z,7.63
2024-02-29T22:59:56.560Z,7.64
2024-02-29T23:02:24.433Z,7.67
2024-02-29T23:04:52.283Z,7.67
2024-02-29T23:07:20.381Z,7.67
2024-02-29T23:09:48.768Z,7.68
2024-02-29T23:12:16.498Z,7.69
2024-02-29T23:14:44.171Z,7.70
2024-02-29T23:17:12.023Z,7.71
2024-02-29T23:19:39.893Z,7.72
2024-02-29T23:22:07.594Z,7.72
2024-02-29T23:24:35.931Z,7.72
2024-02-29T23:27:03.905Z,7.73
2024-02-29T23:29:32.061Z,7.75
2024-02-29T23:31:59.729Z,7.77
2024-02-29T23:34:27.638Z,7.79
2024-02-29T23:36:55.662Z,7.81
2024-02-29T23:39:23.532Z,7.82
2024-02-29T23:41:51.198Z,7.85
2024-02-29T23:44:19.186Z,7.88
2024-02-29T23:46:46.950Z,7.91
2024-02-29T23:49:15.313Z,7.93
2024-02-29T23:51:43.089Z,7.94
2024-02-29T23:54:10.836Z,7.94
2024-02-29T23:56:38.507Z,7.96
2024-02-29T23:59:06.575Z,7.97
